Estación Meteorológica Peña el Pijo (Robertgarden) [ 02/03/23 03:33:54 CET ]

Fecha Hora Presion(HPa) Temp (°C) Humedad % Rocio (°C) Viento ( m/s) Direccion Lluvia 1Hora(mm) Lluvia 24H(mm) LLuvia Total(mm)
2010-Mar-30 01:01:14 1003.900 9.3 70 4.1         104.63
2010-Mar-30 02:01:13 1003.600 9.9 66 3.8 2.7 SE     104.63
2010-Mar-30 03:03:18 1003.200 10.0 65 3.7         104.63
2010-Mar-30 04:01:10 1003.400 9.7 66 3.6         104.63
2010-Mar-30 05:01:19 1003.000 8.9 72 4.1 2.5 SW     104.63
2010-Mar-30 06:01:14 1003.500 7.6 76 3.6         104.63
2010-Mar-30 07:01:14 1004.000 7.3 78 3.7         104.63
2010-Mar-30 08:01:13 1005.200 5.8 76 1.9 2.4 NE     104.63
2010-Mar-30 09:01:14 1005.100 6.3 66 0.4 1.2 NE     104.63
2010-Mar-30 10:01:14 1005.200 7.9 56 -0.4         104.63
2010-Mar-30 11:01:15 1005.900 9.1 45 -2.3         104.63
2010-Mar-30 12:01:17 1006.000 10.6 44 -1.2 2.2 E     104.63
2010-Mar-30 13:01:16 1006.700 12.9 41 -0.1 1.4 E     104.63
2010-Mar-30 14:01:16 1007.100 14.2 37 -0.4         104.63
2010-Mar-30 15:01:17 1007.700 11.5 44 -0.4         104.63
2010-Mar-30 16:01:14 1007.700 11.4 47 0.4 0.8 E     104.63
2010-Mar-30 17:01:11 1008.300 9.6 52 0.2 1.4 SSE     104.63
2010-Mar-30 18:01:13 1008.700 9.3 54 0.4         104.63
2010-Mar-30 19:01:14 1008.700 8.8 58 1.0         104.63
2010-Mar-30 20:01:14 1009.100 8.4 59 0.8         104.63
2010-Mar-30 21:01:14 1008.600 7.8 60 0.5         104.63
2010-Mar-30 22:01:14 1009.600 7.4 62 0.6         104.63
2010-Mar-30 23:01:16 1009.600 6.9 62 0.1         104.63

Temperatura Máxima:14°    Temperatura Mínima:
Presión Máxima:1009.600 Hpa    Presión Mínima:1003.000 Hpa


Volver